Time;durP1;ratioP1;P1;durP2;ratioP2;P2;SDS_P1;SDS_P2;PMS_P1;PMS_P2;Temp;Humidity;BMP_temperature;BMP_pressure;BME280_temperature;BME280_humidity;BME280_pressure;Samples;Min_cycle;Max_cycle;Signal;HPM_P1;HPM_P2
2022/08/13 00:00:59;;;;;;;3.22;1.73;;;16.80;86.80;;;;;;6129779;23;20021;-85
2022/08/13 00:03:30;;;;;;;2.40;1.70;;;16.90;87.10;;;;;;6129081;23;20011;-85
2022/08/13 00:05:56;;;;;;;2.10;1.70;;;16.80;87.60;;;;;;6129741;23;20005;-85
2022/08/13 00:08:25;;;;;;;5.82;3.20;;;16.70;88.60;;;;;;6155879;23;20494;-85
2022/08/13 00:10:51;;;;;;;3.50;1.80;;;16.60;89.20;;;;;;6129523;23;20033;-85
2022/08/13 00:13:18;;;;;;;2.35;2.15;;;16.50;90.00;;;;;;6129372;23;20152;-85
2022/08/13 00:15:46;;;;;;;2.00;1.55;;;16.40;90.50;;;;;;6129858;23;20549;-85
2022/08/13 00:18:18;;;;;;;2.35;2.00;;;16.40;90.70;;;;;;6154446;23;20072;-85
2022/08/13 00:20:50;;;;;;;3.78;2.00;;;16.30;91.00;;;;;;6129675;23;20005;-85
2022/08/13 00:23:18;;;;;;;5.10;2.17;;;16.30;91.10;;;;;;6129500;23;20010;-85
2022/08/13 00:25:45;;;;;;;3.60;1.90;;;16.30;91.30;;;;;;6129468;23;20076;-85
2022/08/13 00:28:14;;;;;;;2.33;2.10;;;16.40;91.30;;;;;;6155872;23;20001;-85
2022/08/13 00:30:40;;;;;;;2.35;1.75;;;16.30;91.50;;;;;;6129593;23;20013;-85
2022/08/13 00:33:11;;;;;;;3.45;2.10;;;16.20;91.70;;;;;;6129191;23;20338;-85
2022/08/13 00:35:38;;;;;;;2.80;2.45;;;16.10;92.10;;;;;;6130129;23;20060;-85
2022/08/13 00:38:12;;;;;;;2.78;1.92;;;16.00;92.80;;;;;;6129991;23;20005;-85
2022/08/13 00:40:48;;;;;;;3.08;2.08;;;15.90;93.10;;;;;;6130006;23;20053;-85
2022/08/13 00:43:14;;;;;;;5.03;1.98;;;15.90;93.50;;;;;;6129662;23;20084;-85
2022/08/13 00:45:41;;;;;;;5.03;1.90;;;15.90;93.80;;;;;;6129522;23;20037;-85
2022/08/13 00:50:53;;;;;;;5.57;1.98;;;15.80;94.40;;;;;;6153960;23;20024;-85
2022/08/13 00:53:21;;;;;;;9.10;2.47;;;15.80;94.60;;;;;;6155617;23;20084;-84
2022/08/13 00:55:56;;;;;;;2.10;1.90;;;15.80;94.80;;;;;;6154084;23;20017;-85
2022/08/13 00:58:23;;;;;;;2.30;2.08;;;15.80;95.00;;;;;;6154289;23;20064;-84
2022/08/13 01:00:51;;;;;;;2.30;1.90;;;15.80;94.90;;;;;;6129495;23;20442;-85
2022/08/13 01:03:19;;;;;;;2.35;1.98;;;15.80;95.20;;;;;;6129586;23;20009;-84
2022/08/13 01:05:46;;;;;;;3.42;2.30;;;15.80;95.20;;;;;;6155666;23;20068;-85
2022/08/13 01:08:17;;;;;;;2.63;1.70;;;15.80;95.40;;;;;;6129395;23;20009;-85
2022/08/13 01:10:49;;;;;;;2.10;1.90;;;15.70;95.50;;;;;;6154010;23;20430;-85
2022/08/13 01:13:17;;;;;;;3.05;2.00;;;15.60;95.90;;;;;;6129132;23;20020;-85
2022/08/13 01:15:44;;;;;;;2.90;1.88;;;15.60;96.00;;;;;;6129171;23;20390;-85
2022/08/13 01:18:13;;;;;;;2.08;1.80;;;15.50;96.20;;;;;;6129590;23;20045;-85
2022/08/13 01:20:47;;;;;;;2.20;2.00;;;15.60;96.20;;;;;;6129029;23;20438;-85
2022/08/13 01:23:15;;;;;;;3.45;1.90;;;15.70;96.60;;;;;;6129216;23;20005;-84
2022/08/13 01:25:42;;;;;;;2.33;2.05;;;15.70;96.20;;;;;;6153845;23;20600;-85
2022/08/13 01:28:08;;;;;;;9.27;2.10;;;15.70;96.10;;;;;;6129080;23;20013;-85
2022/08/13 01:30:34;;;;;;;4.07;2.08;;;15.70;96.10;;;;;;6128912;23;20013;-85
2022/08/13 01:33:08;;;;;;;6.38;2.05;;;15.70;96.10;;;;;;6128863;23;20043;-85
2022/08/13 01:35:34;;;;;;;2.75;2.15;;;15.80;96.10;;;;;;6129700;23;20072;-85
2022/08/13 01:38:00;;;;;;;6.10;2.13;;;15.70;96.20;;;;;;6154283;23;20016;-85
2022/08/13 01:40:26;;;;;;;4.70;2.30;;;15.70;96.40;;;;;;6129012;23;20013;-85
2022/08/13 01:42:53;;;;;;;3.47;2.25;;;15.70;96.50;;;;;;6154002;23;20048;-85
2022/08/13 01:45:19;;;;;;;3.35;2.65;;;15.60;96.70;;;;;;6129590;23;20016;-85
2022/08/13 01:50:30;;;;;;;3.08;1.95;;;15.60;96.90;;;;;;6153951;23;20013;-85
2022/08/13 01:53:01;;;;;;;4.95;2.67;;;15.60;97.10;;;;;;6153975;23;20016;-85
2022/08/13 01:55:42;;;;;;;2.90;1.95;;;15.50;97.30;;;;;;6129301;23;20100;-85
2022/08/13 01:58:12;;;;;;;8.93;2.35;;;15.50;97.40;;;;;;6129439;23;20749;-85
2022/08/13 02:00:39;;;;;;;3.75;2.28;;;15.50;97.60;;;;;;6154133;23;20064;-85
2022/08/13 02:03:09;;;;;;;4.07;2.45;;;15.50;97.80;;;;;;6155111;23;20045;-85
2022/08/13 02:05:39;;;;;;;4.72;2.03;;;15.50;98.20;;;;;;6156435;23;19998;-85
2022/08/13 02:08:11;;;;;;;3.17;2.13;;;15.40;98.50;;;;;;6156225;23;20033;-85
2022/08/13 02:10:40;;;;;;;3.10;2.30;;;15.30;98.90;;;;;;6156098;23;20006;-85
2022/08/13 02:13:17;;;;;;;3.15;2.42;;;15.30;99.40;;;;;;6155454;23;20001;-85
2022/08/13 02:15:46;;;;;;;2.53;2.33;;;15.30;99.80;;;;;;6130799;23;20501;-85
2022/08/13 02:18:17;;;;;;;2.85;2.00;;;15.20;99.90;;;;;;6155366;23;20060;-85
2022/08/13 02:20:45;;;;;;;3.75;2.10;;;15.20;99.90;;;;;;6131053;23;20549;-85
2022/08/13 02:23:20;;;;;;;7.68;2.47;;;15.20;99.90;;;;;;6130771;23;20002;-85
2022/08/13 02:25:50;;;;;;;2.25;2.03;;;15.20;99.90;;;;;;6130952;23;20334;-85
2022/08/13 02:28:19;;;;;;;2.67;2.47;;;15.20;99.90;;;;;;6130856;23;20048;-85
2022/08/13 02:30:49;;;;;;;4.28;2.47;;;15.20;99.90;;;;;;6155383;23;20002;-85
2022/08/13 02:33:15;;;;;;;6.35;2.55;;;15.20;99.90;;;;;;6130550;23;20104;-85
2022/08/13 02:35:42;;;;;;;3.22;2.50;;;15.20;99.90;;;;;;6155673;23;20002;-85
2022/08/13 02:38:11;;;;;;;5.57;2.35;;;15.20;99.90;;;;;;6131357;23;20014;-85
2022/08/13 02:43:26;;;;;;;4.15;2.70;;;15.10;99.90;;;;;;6155203;23;20012;-85
2022/08/13 02:45:54;;;;;;;2.97;2.65;;;15.10;99.90;;;;;;6155702;23;20426;-84
2022/08/13 02:48:24;;;;;;;3.10;2.55;;;15.10;99.90;;;;;;6155063;23;20014;-85
2022/08/13 02:50:51;;;;;;;3.38;2.65;;;15.10;99.90;;;;;;6155376;23;20018;-85
2022/08/13 02:53:21;;;;;;;2.65;2.42;;;15.00;99.90;;;;;;6156343;23;20418;-85
2022/08/13 02:55:47;;;;;;;4.43;2.20;;;15.00;99.90;;;;;;6155721;23;20430;-84
2022/08/13 02:58:14;;;;;;;5.90;2.58;;;15.00;99.90;;;;;;6155465;23;20657;-85
2022/08/13 03:00:41;;;;;;;3.55;2.75;;;15.00;99.90;;;;;;6154831;23;20013;-85
2022/08/13 03:03:08;;;;;;;5.55;2.70;;;15.00;99.90;;;;;;6155091;23;20001;-85
2022/08/13 03:05:35;;;;;;;3.90;2.65;;;15.00;99.90;;;;;;6130022;23;20013;-84
2022/08/13 03:08:03;;;;;;;3.63;2.20;;;14.90;99.90;;;;;;6130112;23;20037;-85
2022/08/13 03:10:29;;;;;;;4.10;2.70;;;15.00;99.90;;;;;;6130021;23;20048;-85
2022/08/13 03:13:01;;;;;;;6.60;2.67;;;15.00;99.90;;;;;;6154347;23;20076;-84
2022/08/13 03:15:28;;;;;;;3.78;2.70;;;14.90;99.90;;;;;;6129602;23;20422;-85
2022/08/13 03:17:54;;;;;;;3.42;2.42;;;14.90;99.90;;;;;;6129841;23;20014;-84
2022/08/13 03:20:20;;;;;;;4.47;2.63;;;14.90;99.90;;;;;;6154517;23;20704;-84
2022/08/13 03:22:51;;;;;;;3.88;2.53;;;14.90;99.90;;;;;;6129735;23;20013;-85
2022/08/13 03:25:17;;;;;;;3.75;2.38;;;14.90;99.90;;;;;;6153804;23;20029;-84
2022/08/13 03:27:44;;;;;;;3.22;2.55;;;14.80;99.90;;;;;;6130283;23;20138;-84
2022/08/13 03:30:11;;;;;;;7.28;2.45;;;14.80;99.90;;;;;;6154874;23;20008;-84
2022/08/13 03:32:40;;;;;;;5.78;2.75;;;14.70;99.90;;;;;;6130502;23;20009;-84
2022/08/13 03:35:11;;;;;;;3.42;2.60;;;14.70;99.90;;;;;;6129942;23;20002;-85
2022/08/13 03:37:39;;;;;;;2.85;2.45;;;14.70;99.90;;;;;;6130343;23;20005;-85
2022/08/13 03:40:05;;;;;;;5.93;2.40;;;14.60;99.90;;;;;;6154919;23;20001;-84
2022/08/13 03:42:31;;;;;;;4.15;2.72;;;14.60;99.90;;;;;;6154790;23;20084;-84
2022/08/13 03:44:57;;;;;;;3.80;2.60;;;14.60;99.90;;;;;;6129561;23;20037;-84
2022/08/13 03:47:23;;;;;;;4.47;3.00;;;14.50;99.90;;;;;;6129466;23;20755;-85
2022/08/13 03:49:49;;;;;;;5.22;3.08;;;14.50;99.90;;;;;;6129294;23;20013;-84
2022/08/13 03:52:15;;;;;;;8.80;2.70;;;14.40;99.90;;;;;;6129581;23;20021;-84
2022/08/13 03:54:41;;;;;;;4.25;3.05;;;14.40;99.90;;;;;;6153983;23;20423;-85
2022/08/13 03:57:07;;;;;;;3.08;2.53;;;14.30;99.90;;;;;;6129238;23;20013;-85
2022/08/13 03:59:33;;;;;;;6.25;2.75;;;14.30;99.90;;;;;;6128627;23;20005;-85
2022/08/13 04:02:02;;;;;;;4.35;2.20;;;14.30;99.90;;;;;;6129347;23;20017;-85
2022/08/13 04:04:28;;;;;;;5.18;2.72;;;14.20;99.90;;;;;;6129030;23;20006;-85
2022/08/13 04:06:54;;;;;;;4.88;3.00;;;14.20;99.90;;;;;;6129562;23;20010;-84
2022/08/13 04:09:20;;;;;;;5.53;2.85;;;14.20;99.90;;;;;;6155471;23;20041;-85
2022/08/13 04:11:46;;;;;;;3.72;3.08;;;14.20;99.90;;;;;;6129619;23;20033;-84
2022/08/13 04:14:12;;;;;;;5.55;3.10;;;14.10;99.90;;;;;;6128953;23;20418;-84
2022/08/13 04:16:40;;;;;;;3.90;2.83;;;14.10;99.90;;;;;;6153936;23;20020;-84
2022/08/13 04:19:06;;;;;;;3.80;2.40;;;14.20;99.90;;;;;;6129514;23;20014;-83
2022/08/13 04:21:33;;;;;;;4.15;2.70;;;14.10;99.90;;;;;;6129282;23;20413;-84
2022/08/13 04:24:03;;;;;;;6.10;2.88;;;14.10;99.90;;;;;;6153616;23;20013;-83
2022/08/13 04:26:30;;;;;;;3.38;2.63;;;14.20;99.90;;;;;;6154254;23;20012;-83
2022/08/13 04:28:57;;;;;;;4.10;3.38;;;14.30;99.90;;;;;;6154107;23;20008;-83
2022/08/13 04:31:24;;;;;;;5.65;2.60;;;14.40;99.90;;;;;;6153990;23;20025;-83
2022/08/13 04:33:50;;;;;;;3.55;2.97;;;14.40;99.90;;;;;;6152946;23;20009;-84
2022/08/13 04:36:16;;;;;;;5.90;3.38;;;14.50;99.90;;;;;;6153704;23;20010;-83
2022/08/13 04:38:42;;;;;;;4.75;2.30;;;14.60;99.90;;;;;;6153667;23;20005;-84
2022/08/13 04:41:08;;;;;;;3.83;2.95;;;14.70;99.90;;;;;;6128948;23;20009;-84
2022/08/13 04:43:34;;;;;;;4.63;2.70;;;14.90;99.90;;;;;;6128942;23;20037;-84
2022/08/13 04:46:00;;;;;;;2.95;2.58;;;15.00;99.90;;;;;;6129358;23;20438;-84
2022/08/13 04:48:33;;;;;;;6.18;2.40;;;15.10;99.90;;;;;;6154298;23;20071;-84
2022/08/13 04:50:59;;;;;;;2.90;2.60;;;15.30;99.90;;;;;;6156099;23;20080;-84
2022/08/13 04:53:27;;;;;;;4.15;2.50;;;15.40;99.90;;;;;;6130080;23;20092;-83
2022/08/13 04:55:55;;;;;;;5.00;2.53;;;15.60;99.90;;;;;;6155831;23;20438;-84
2022/08/13 04:58:23;;;;;;;3.05;2.45;;;15.60;99.90;;;;;;6129494;23;20315;-84
2022/08/13 05:00:50;;;;;;;2.88;2.55;;;15.70;99.90;;;;;;6154123;23;20008;-84
2022/08/13 05:03:21;;;;;;;6.82;3.00;;;15.80;99.90;;;;;;6154349;23;20033;-84
2022/08/13 05:05:48;;;;;;;5.47;2.42;;;15.90;99.90;;;;;;6155621;23;20052;-83
2022/08/13 05:08:15;;;;;;;3.13;2.67;;;16.00;99.90;;;;;;6153794;23;20064;-84
2022/08/13 05:10:42;;;;;;;9.95;2.92;;;16.20;99.90;;;;;;6129166;23;20013;-84
2022/08/13 05:13:27;;;;;;;5.72;2.88;;;16.20;99.90;;;;;;6155601;23;20049;-83
2022/08/13 05:15:56;;;;;;;3.78;2.63;;;16.20;99.90;;;;;;6155112;23;20633;-83
2022/08/13 05:18:22;;;;;;;4.00;2.35;;;16.30;99.90;;;;;;6153226;23;20041;-84
2022/08/13 05:20:52;;;;;;;3.70;2.75;;;16.40;99.90;;;;;;6153099;23;20442;-84
2022/08/13 05:23:19;;;;;;;4.90;2.80;;;16.50;99.90;;;;;;6153186;23;20364;-84
2022/08/13 05:26:04;;;;;;;6.93;2.30;;;16.60;99.90;;;;;;6129166;23;20005;-83
2022/08/13 05:28:31;;;;;;;4.32;3.17;;;16.60;99.90;;;;;;6153868;23;20315;-84
2022/08/13 05:30:57;;;;;;;2.50;2.30;;;16.70;99.90;;;;;;6129312;23;20014;-83
2022/08/13 05:33:25;;;;;;;3.40;2.60;;;16.80;99.90;;;;;;6129232;23;20068;-84
2022/08/13 05:36:01;;;;;;;6.20;2.60;;;17.00;99.90;;;;;;6128052;23;20438;-84
2022/08/13 05:38:29;;;;;;;6.85;2.70;;;17.20;99.90;;;;;;6129991;23;20068;-83
2022/08/13 05:40:58;;;;;;;3.65;2.60;;;17.30;99.90;;;;;;6155689;23;20001;-84
2022/08/13 05:43:28;;;;;;;4.20;2.65;;;17.40;99.90;;;;;;6154589;23;20150;-84
2022/08/13 05:45:59;;;;;;;3.35;2.60;;;17.50;99.90;;;;;;6156018;23;20012;-84
2022/08/13 05:48:31;;;;;;;5.28;2.75;;;17.60;99.90;;;;;;6131474;23;20121;-83
2022/08/13 05:51:03;;;;;;;2.90;2.20;;;17.60;99.90;;;;;;6131285;23;20010;-84
2022/08/13 05:53:32;;;;;;;5.40;2.75;;;17.70;99.90;;;;;;6155649;23;20014;-84
2022/08/13 05:55:58;;;;;;;2.67;2.22;;;17.80;99.90;;;;;;6130718;23;20449;-84
2022/08/13 05:58:24;;;;;;;5.68;2.97;;;18.00;99.90;;;;;;6155413;23;20008;-83
2022/08/13 06:03:36;;;;;;;2.75;2.53;;;18.20;99.90;;;;;;6154914;23;20517;-84
2022/08/13 06:06:07;;;;;;;2.90;2.30;;;18.40;99.90;;;;;;6131041;23;20013;-84
2022/08/13 06:08:36;;;;;;;6.57;2.55;;;18.50;99.90;;;;;;6155343;23;20430;-84
2022/08/13 06:11:08;;;;;;;2.47;2.20;;;18.50;99.90;;;;;;6130927;23;20606;-83
2022/08/13 06:13:38;;;;;;;3.30;2.65;;;18.70;99.50;;;;;;6155438;23;20493;-83
2022/08/13 06:16:10;;;;;;;4.28;3.13;;;18.90;98.90;;;;;;6130993;23;20422;-84
2022/08/13 06:18:38;;;;;;;4.40;2.47;;;19.10;98.50;;;;;;6131197;23;20382;-83
2022/08/13 06:21:07;;;;;;;4.72;2.53;;;19.20;98.40;;;;;;6154618;23;20009;-84
2022/08/13 06:23:35;;;;;;;8.25;2.30;;;19.30;97.60;;;;;;6155196;23;20140;-83
2022/08/13 06:26:02;;;;;;;7.47;3.05;;;19.40;97.10;;;;;;6156660;23;20009;-83
2022/08/13 06:28:30;;;;;;;5.90;2.60;;;19.50;96.80;;;;;;6130704;23;20001;-83
2022/08/13 06:31:01;;;;;;;4.80;2.58;;;19.50;96.70;;;;;;6155090;23;20016;-83
2022/08/13 06:33:32;;;;;;;8.00;3.13;;;19.60;96.30;;;;;;6130024;23;20434;-84
2022/08/13 06:36:00;;;;;;;2.50;2.30;;;19.80;95.80;;;;;;6130673;23;20013;-83
2022/08/13 06:38:31;;;;;;;2.78;2.58;;;19.90;96.00;;;;;;6130777;23;20640;-84
2022/08/13 06:41:01;;;;;;;3.42;2.22;;;20.00;95.50;;;;;;6155203;23;20005;-83
2022/08/13 06:43:32;;;;;;;2.60;2.40;;;20.10;95.40;;;;;;6154633;23;20368;-83
2022/08/13 06:45:59;;;;;;;3.42;2.13;;;20.10;94.80;;;;;;6154674;23;20059;-84
2022/08/13 06:48:27;;;;;;;3.17;2.58;;;20.20;94.40;;;;;;6130252;23;20109;-83
2022/08/13 06:50:53;;;;;;;8.15;2.50;;;20.30;94.30;;;;;;6129487;23;20009;-84
2022/08/13 06:53:19;;;;;;;2.78;2.28;;;20.30;93.90;;;;;;6129485;23;20084;-83
2022/08/13 06:55:48;;;;;;;4.05;2.33;;;20.40;93.60;;;;;;6129800;23;20442;-83
2022/08/13 06:58:15;;;;;;;3.15;2.83;;;20.50;93.60;;;;;;6154165;23;20015;-84
2022/08/13 07:00:41;;;;;;;2.55;2.35;;;20.50;93.40;;;;;;6129832;23;20012;-84
2022/08/13 07:03:09;;;;;;;8.50;2.45;;;20.50;93.20;;;;;;6129524;23;20089;-84
2022/08/13 07:05:43;;;;;;;8.90;2.67;;;20.60;92.90;;;;;;6129563;23;20654;-83
2022/08/13 07:08:11;;;;;;;6.85;2.60;;;20.60;92.70;;;;;;6130426;23;20096;-83
2022/08/13 07:10:43;;;;;;;3.58;2.47;;;20.70;92.90;;;;;;6130518;23;20024;-83
2022/08/13 07:13:09;;;;;;;8.75;2.70;;;20.80;92.80;;;;;;6154835;23;20079;-83
2022/08/13 07:15:36;;;;;;;2.80;2.45;;;20.80;92.80;;;;;;6129693;23;20016;-85
2022/08/13 07:18:03;;;;;;;3.10;2.80;;;20.90;92.70;;;;;;6130019;23;20017;-84
2022/08/13 07:20:30;;;;;;;3.22;2.70;;;21.00;92.40;;;;;;6130445;23;20052;-83
2022/08/13 07:22:57;;;;;;;2.85;2.33;;;21.10;92.20;;;;;;6130287;23;20005;-83
2022/08/13 07:25:26;;;;;;;3.00;1.98;;;21.20;92.00;;;;;;6129107;23;20010;-83
2022/08/13 07:27:52;;;;;;;2.38;2.17;;;21.20;91.70;;;;;;6129779;23;20010;-84
2022/08/13 07:30:19;;;;;;;5.78;2.30;;;21.30;92.20;;;;;;6154238;23;20350;-84
2022/08/13 07:32:45;;;;;;;5.20;2.70;;;21.40;92.40;;;;;;6130139;23;20389;-83
2022/08/13 07:35:12;;;;;;;8.07;2.42;;;21.50;91.30;;;;;;6129069;23;20163;-83
2022/08/13 07:37:41;;;;;;;3.45;2.30;;;21.50;91.10;;;;;;6154254;23;20021;-83
2022/08/13 07:40:10;;;;;;;6.07;2.80;;;21.60;91.00;;;;;;6129851;23;20019;-84
2022/08/13 07:42:41;;;;;;;5.55;2.88;;;21.70;91.00;;;;;;6154676;23;20072;-84
2022/08/13 07:45:11;;;;;;;3.40;2.70;;;21.70;90.70;;;;;;6129778;23;20311;-84
2022/08/13 07:47:39;;;;;;;2.65;2.00;;;21.80;90.60;;;;;;6129879;23;20042;-84
2022/08/13 07:50:11;;;;;;;5.65;2.45;;;21.90;90.50;;;;;;6130103;23;20009;-83
2022/08/13 07:52:38;;;;;;;10.45;2.60;;;21.90;90.20;;;;;;6156218;23;20009;-83
2022/08/13 07:55:05;;;;;;;5.50;2.20;;;22.00;90.40;;;;;;6154261;23;20005;-84
2022/08/13 07:57:32;;;;;;;3.58;2.20;;;22.10;90.30;;;;;;6129873;23;20014;-83
2022/08/13 07:59:58;;;;;;;3.20;2.63;;;22.30;90.10;;;;;;6154278;23;20016;-85
2022/08/13 08:02:31;;;;;;;7.15;2.25;;;22.30;89.40;;;;;;6154203;23;20397;-83
2022/08/13 08:04:57;;;;;;;6.15;2.28;;;22.40;88.10;;;;;;6129912;23;20063;-83
2022/08/13 08:07:27;;;;;;;5.40;2.45;;;22.40;88.10;;;;;;6129644;23;20382;-83
2022/08/13 08:09:54;;;;;;;3.63;2.47;;;22.50;88.30;;;;;;6129365;23;20041;-84
2022/08/13 08:12:35;;;;;;;7.03;2.65;;;22.50;87.40;;;;;;6154174;23;20014;-84
2022/08/13 08:15:05;;;;;;;2.92;2.33;;;22.50;86.30;;;;;;6129850;23;20064;-83
2022/08/13 08:17:31;;;;;;;3.42;2.55;;;22.50;88.10;;;;;;6154868;23;20073;-83
2022/08/13 08:19:57;;;;;;;7.32;2.85;;;22.60;87.10;;;;;;6154887;23;20040;-82
2022/08/13 08:22:23;;;;;;;4.53;2.90;;;22.70;86.50;;;;;;6154845;23;20043;-80
2022/08/13 08:24:50;;;;;;;3.22;2.38;;;22.80;86.30;;;;;;6155993;23;20009;-83
2022/08/13 08:27:19;;;;;;;5.68;2.78;;;22.80;86.30;;;;;;6154981;23;20017;-82
2022/08/13 08:29:46;;;;;;;10.13;3.00;;;22.80;85.40;;;;;;6154477;23;20376;-82
2022/08/13 08:32:13;;;;;;;3.95;2.47;;;22.70;85.90;;;;;;6129618;23;20009;-83
2022/08/13 08:34:41;;;;;;;6.00;2.38;;;22.70;86.20;;;;;;6129506;23;20346;-82
2022/08/13 08:37:12;;;;;;;3.15;2.40;;;22.80;85.60;;;;;;6129552;23;20091;-83
2022/08/13 08:42:35;;;;;;;2.70;2.40;;;23.10;84.70;;;;;;6153684;23;20481;-83
2022/08/13 08:45:11;;;;;;;5.38;2.45;;;24.10;82.50;;;;;;6129310;23;20100;-83
2022/08/13 08:47:37;;;;;;;3.00;2.05;;;25.80;77.50;;;;;;6129558;23;20020;-83
2022/08/13 08:50:05;;;;;;;6.20;2.25;;;27.30;72.50;;;;;;6129703;23;20013;-82
2022/08/13 08:55:16;;;;;;;9.63;2.13;;;29.20;67.40;;;;;;6153711;23;20349;-83
2022/08/13 08:57:44;;;;;;;7.28;2.10;;;29.80;65.40;;;;;;6129466;23;20016;-83
2022/08/13 09:00:20;;;;;;;2.33;2.10;;;29.80;62.60;;;;;;6128808;23;20044;-83
2022/08/13 09:02:51;;;;;;;4.78;1.95;;;30.10;61.20;;;;;;6153503;23;20005;-83
2022/08/13 09:05:21;;;;;;;4.57;2.10;;;30.50;60.60;;;;;;6153445;23;20017;-82
2022/08/13 09:07:47;;;;;;;3.13;2.35;;;31.00;59.90;;;;;;6154185;23;20422;-83
2022/08/13 09:10:16;;;;;;;3.92;2.17;;;31.60;57.40;;;;;;6129568;23;20422;-83
2022/08/13 09:12:44;;;;;;;1.73;1.50;;;31.30;55.40;;;;;;6154423;23;20009;-83
2022/08/13 09:15:12;;;;;;;3.22;1.55;;;30.60;55.60;;;;;;6155857;23;20010;-83
2022/08/13 09:17:39;;;;;;;5.05;1.65;;;30.60;55.70;;;;;;6155460;23;20040;-83
2022/08/13 09:20:12;;;;;;;3.42;1.70;;;30.80;55.40;;;;;;6155766;23;20076;-83
2022/08/13 09:22:40;;;;;;;5.68;1.75;;;30.50;55.70;;;;;;6131653;23;20323;-82
2022/08/13 09:25:07;;;;;;;5.22;2.03;;;31.10;55.00;;;;;;6131313;23;20016;-83
2022/08/13 09:27:34;;;;;;;1.98;1.80;;;31.70;55.00;;;;;;6131675;23;20052;-83
2022/08/13 09:30:01;;;;;;;2.58;1.80;;;31.60;55.20;;;;;;6131294;23;20431;-83
2022/08/13 09:32:35;;;;;;;2.50;1.63;;;31.50;53.50;;;;;;6131574;23;20005;-83
2022/08/13 09:35:03;;;;;;;6.13;1.70;;;31.10;54.20;;;;;;6131048;23;20088;-84
2022/08/13 09:37:31;;;;;;;3.10;1.75;;;30.60;54.40;;;;;;6156114;23;20088;-84
2022/08/13 09:40:03;;;;;;;6.30;1.77;;;29.30;55.40;;;;;;6155429;23;20013;-83
2022/08/13 09:42:35;;;;;;;1.65;1.55;;;29.30;56.60;;;;;;6130641;23;20064;-83
2022/08/13 09:45:03;;;;;;;3.15;1.98;;;29.70;55.70;;;;;;6130401;23;20015;-84
2022/08/13 09:47:29;;;;;;;2.90;1.77;;;28.90;57.60;;;;;;6155484;23;20386;-84
2022/08/13 09:49:56;;;;;;;7.72;2.08;;;27.80;57.40;;;;;;6155119;23;20009;-83
2022/08/13 09:52:22;;;;;;;2.28;2.08;;;27.60;57.70;;;;;;6155412;23;20072;-83
2022/08/13 09:54:49;;;;;;;3.33;1.88;;;28.50;57.90;;;;;;6155452;23;20704;-83
2022/08/13 09:57:20;;;;;;;3.03;1.90;;;28.90;56.80;;;;;;6131477;23;20623;-83
2022/08/13 09:59:47;;;;;;;2.92;2.03;;;29.10;55.40;;;;;;6131310;23;20013;-83
2022/08/13 10:02:14;;;;;;;4.20;1.77;;;28.70;56.30;;;;;;6131018;23;20338;-83
2022/08/13 10:04:42;;;;;;;6.85;2.08;;;28.60;57.00;;;;;;6130442;23;20012;-83
2022/08/13 10:07:12;;;;;;;4.13;2.00;;;29.00;57.50;;;;;;6130840;23;20103;-83
2022/08/13 10:09:38;;;;;;;1.60;1.38;;;28.70;56.50;;;;;;6155582;23;20016;-83
2022/08/13 10:12:07;;;;;;;5.50;2.55;;;28.80;54.90;;;;;;6130968;23;20327;-83
2022/08/13 10:14:34;;;;;;;3.15;1.80;;;28.50;55.20;;;;;;6130773;23;20427;-83
2022/08/13 10:17:00;;;;;;;2.03;1.70;;;28.50;54.40;;;;;;6155405;23;20008;-83
2022/08/13 10:19:26;;;;;;;2.38;1.50;;;28.50;55.90;;;;;;6130400;23;20013;-83
2022/08/13 10:22:16;;;;;;;2.63;1.80;;;28.70;55.60;;;;;;6130217;23;20068;-82
2022/08/13 10:24:42;;;;;;;5.05;1.70;;;28.30;55.30;;;;;;6130244;23;20031;-83
2022/08/13 10:27:08;;;;;;;5.63;1.73;;;28.40;55.00;;;;;;6155698;23;20430;-83
2022/08/13 10:29:34;;;;;;;2.97;2.00;;;28.80;55.70;;;;;;6131020;23;20346;-82
2022/08/13 10:32:00;;;;;;;4.22;1.90;;;28.90;55.40;;;;;;6156552;23;20010;-83
2022/08/13 10:34:25;;;;;;;9.90;1.95;;;29.90;54.60;;;;;;6130038;23;20461;-84
2022/08/13 10:36:51;;;;;;;5.95;2.00;;;30.50;53.60;;;;;;6130615;23;20018;-83
2022/08/13 10:39:17;;;;;;;2.22;1.90;;;30.40;53.30;;;;;;6155270;23;20316;-83
2022/08/13 10:41:43;;;;;;;4.85;2.40;;;30.50;53.30;;;;;;6130692;23;20005;-83
2022/08/13 10:44:09;;;;;;;2.95;1.88;;;30.20;53.60;;;;;;6131048;23;20005;-83
2022/08/13 10:46:35;;;;;;;2.10;1.60;;;30.40;53.70;;;;;;6155245;23;20611;-83
2022/08/13 10:49:01;;;;;;;3.60;1.80;;;30.30;53.00;;;;;;6156808;23;20024;-84
2022/08/13 10:51:30;;;;;;;3.00;1.80;;;30.70;52.80;;;;;;6130457;23;20031;-83
2022/08/13 10:53:58;;;;;;;7.03;1.60;;;31.50;52.00;;;;;;6129813;23;20009;-84
2022/08/13 10:56:27;;;;;;;6.25;1.60;;;31.40;51.50;;;;;;6154736;23;20015;-84
2022/08/13 10:58:58;;;;;;;3.83;2.00;;;31.40;51.90;;;;;;6129866;23;20500;-83
2022/08/13 11:01:26;;;;;;;1.70;1.60;;;31.30;51.10;;;;;;6130537;23;20014;-84
2022/08/13 11:03:53;;;;;;;4.50;1.70;;;30.80;51.90;;;;;;6130052;23;20009;-84
2022/08/13 11:06:19;;;;;;;2.47;1.60;;;31.40;51.90;;;;;;6130516;23;20342;-84
2022/08/13 11:08:47;;;;;;;2.88;1.80;;;30.90;52.30;;;;;;6130022;23;20016;-84
2022/08/13 11:11:12;;;;;;;1.88;1.70;;;30.00;52.90;;;;;;6154650;23;20084;-84
2022/08/13 11:13:39;;;;;;;3.30;1.50;;;30.50;52.80;;;;;;6129557;23;20044;-84
2022/08/13 11:16:28;;;;;;;3.33;1.38;;;30.70;52.20;;;;;;6154430;23;20016;-84
2022/08/13 11:18:54;;;;;;;4.10;1.55;;;31.50;51.40;;;;;;6155727;23;20010;-85
2022/08/13 11:21:20;;;;;;;1.83;1.58;;;31.80;50.10;;;;;;6154074;23;20009;-84
2022/08/13 11:23:46;;;;;;;1.70;1.60;;;31.60;50.20;;;;;;6154026;23;20068;-84
2022/08/13 11:26:11;;;;;;;4.07;1.83;;;31.50;49.80;;;;;;6154564;23;20046;-84
2022/08/13 11:28:37;;;;;;;3.40;1.50;;;31.20;49.80;;;;;;6154153;23;20005;-84
2022/08/13 11:31:03;;;;;;;6.70;1.90;;;31.60;49.20;;;;;;6153729;23;20013;-84
2022/08/13 11:34:09;;;;;;;2.35;1.60;;;31.80;48.90;;;;;;6153950;23;20426;-84
2022/08/13 11:36:35;;;;;;;2.67;1.50;;;30.60;49.00;;;;;;6153697;23;20016;-84
2022/08/13 11:39:01;;;;;;;3.58;2.28;;;30.30;50.40;;;;;;6155857;23;20430;-83
2022/08/13 11:41:27;;;;;;;2.65;1.50;;;30.80;51.20;;;;;;6129274;23;20064;-84
2022/08/13 11:43:53;;;;;;;6.07;1.95;;;31.10;49.50;;;;;;6129153;23;20009;-84
2022/08/13 11:46:20;;;;;;;2.92;1.60;;;31.40;48.50;;;;;;6129461;23;20010;-84
2022/08/13 11:48:46;;;;;;;2.63;1.38;;;31.10;48.80;;;;;;6154571;23;20060;-84
2022/08/13 11:51:12;;;;;;;5.28;1.40;;;31.40;48.50;;;;;;6155025;23;20362;-84
2022/08/13 11:53:37;;;;;;;2.88;1.30;;;31.90;47.60;;;;;;6129402;23;20128;-83
2022/08/13 11:56:04;;;;;;;1.40;1.30;;;32.20;48.20;;;;;;6129777;23;20013;-84
2022/08/13 11:58:32;;;;;;;2.45;1.40;;;32.10;49.10;;;;;;6154440;23;20020;-83
2022/08/13 12:00:59;;;;;;;2.10;1.58;;;32.60;48.50;;;;;;6129857;23;20017;-83
2022/08/13 12:03:25;;;;;;;4.80;1.65;;;32.40;47.30;;;;;;6129668;23;20006;-83
2022/08/13 12:05:51;;;;;;;1.80;1.33;;;32.00;48.60;;;;;;6129047;23;20013;-83
2022/08/13 12:08:20;;;;;;;4.22;1.58;;;32.00;47.60;;;;;;6129694;23;20346;-84
2022/08/13 12:10:47;;;;;;;3.80;1.50;;;32.20;47.40;;;;;;6153764;23;20064;-83
2022/08/13 12:13:13;;;;;;;2.40;1.80;;;32.10;48.20;;;;;;6153759;23;20419;-84
2022/08/13 12:15:39;;;;;;;3.83;1.55;;;32.00;48.50;;;;;;6129586;23;20045;-84
2022/08/13 12:18:06;;;;;;;1.48;1.20;;;31.80;48.50;;;;;;6129662;23;20021;-84
2022/08/13 12:20:31;;;;;;;4.35;1.73;;;32.00;48.30;;;;;;6129333;23;20100;-84
2022/08/13 12:22:59;;;;;;;5.70;2.00;;;31.70;48.10;;;;;;6129047;23;20047;-84
2022/08/13 12:25:27;;;;;;;3.97;1.60;;;31.80;48.80;;;;;;6153668;23;19998;-84
2022/08/13 12:28:12;;;;;;;5.93;2.03;;;32.10;48.00;;;;;;6129099;23;20002;-84
2022/08/13 12:30:39;;;;;;;2.45;1.63;;;32.40;47.90;;;;;;6153819;23;20013;-84
2022/08/13 12:33:05;;;;;;;3.42;1.70;;;32.20;47.70;;;;;;6128937;23;20501;-83
2022/08/13 12:35:32;;;;;;;2.47;1.40;;;31.40;48.10;;;;;;6129435;23;20017;-84
2022/08/13 12:37:58;;;;;;;2.33;1.70;;;31.70;47.70;;;;;;6154071;23;20045;-84
2022/08/13 12:40:24;;;;;;;4.32;1.75;;;31.80;47.20;;;;;;6128657;23;20024;-83
2022/08/13 12:42:50;;;;;;;4.78;1.70;;;31.90;47.50;;;;;;6129717;23;20523;-83
2022/08/13 12:45:16;;;;;;;4.35;1.95;;;31.60;48.20;;;;;;6129559;23;20005;-84
2022/08/13 12:47:46;;;;;;;4.43;1.45;;;31.50;48.20;;;;;;6153849;23;20017;-83
2022/08/13 12:50:12;;;;;;;2.20;1.70;;;31.50;49.00;;;;;;6154136;23;20704;-84
2022/08/13 12:52:37;;;;;;;2.05;1.70;;;31.70;47.70;;;;;;6128999;23;20045;-83
2022/08/13 12:55:04;;;;;;;4.07;1.90;;;31.80;48.00;;;;;;6128892;23;20009;-84
2022/08/13 12:57:31;;;;;;;4.72;1.60;;;31.00;48.40;;;;;;6128985;23;20230;-83
2022/08/13 12:59:56;;;;;;;4.55;1.77;;;30.30;49.00;;;;;;6153468;23;20020;-84
2022/08/13 13:02:22;;;;;;;4.22;1.80;;;30.40;49.20;;;;;;6129204;23;20017;-84
2022/08/13 13:04:48;;;;;;;5.55;1.58;;;30.70;47.70;;;;;;6153687;23;20001;-84
2022/08/13 13:07:14;;;;;;;2.88;1.55;;;30.60;48.10;;;;;;6129180;23;20481;-84
2022/08/13 13:09:40;;;;;;;4.35;1.98;;;30.90;48.10;;;;;;6153619;23;20010;-84